Etusivu
METAR-TAF:

METAR-TAF

Lentoasemat :

Oran, Algeria

Leveyspiiri: 35-38N, Pituuspiiri: 000-36W, korkeus merenpinnasta: 90 m

Tämänhetkinen sää

Tämä raportti tehtiin 43 minuuttia sitten, kello 05.30 UTC
Tuuli 3 kn kaakosta
Lämpötila 8°C
Kosteus 81%
Ilmanpaine 1021 hPa
Näkyvyys 10 km tai enemmän
Muutamia pilviä 2600 ft:n korkeudessa

METAR: DAOO 270530Z 14003KT 9999 FEW026 08/05 Q1021

Aika: 07:13 (06:13 UTC)

Sääennuste

Tämä raportti tehtiin 1 tunti ja 13 minuuttia sitten, kello 05.00 UTC
Ennuste voimassa 27. päivästä klo 06 UTC - 28. päivään klo 06 UTC
Tuuli 2 kn eri suunnista
Näkyvyys 10 km tai enemmän
Hajanaisia pilviä 2600 ft:n korkeudessa
Tulossa
27. päivästä klo 10 UTC - 27. päivään klo 13 UTC
Tuuli 14 kn lännestä
Tulossa
27. päivästä klo 20 UTC - 27. päivään klo 23 UTC
Tuuli 2 kn eri suunnista

TAF: DAOO 270500Z 2706/2806 VRB02KT 9999 SCT026 BECMG 2710/2713 28014KT BECMG 2720/2723 VRB02KT

Säähavainnot ja -ennusteet yli 4000 lentoasemalta (METAR- ja TAF-raportit).

Käytössä olevat sääasemat on merkitty karttaan keltaisilla ja punaisilla pisteillä.

Aseta hiiri pisteen päälle nähdäksesi sääaseman nimen.

Klikkaa sitten nähdäksesi säähavainnot ja -ennusteet.

Kartan vaihtaminen: klikkaa mustalla rastilla varustettuja vihreitä pisteitä, niin voit zoomata sisään; viivalla varustettua vihreää pistettä, niin voit zoomata ulos tai vihreitä nuolia, niin pääset viereisille kartoille.


METAR-TAF: